Time;durP1;ratioP1;P1;durP2;ratioP2;P2;SDS_P1;SDS_P2;PMS_P1;PMS_P2;Temp;Humidity;BMP_temperature;BMP_pressure;BME280_temperature;BME280_humidity;BME280_pressure;Samples;Min_cycle;Max_cycle;Signal;HPM_P1;HPM_P2
2022/07/17 00:01:31;;;;;;;6.50;3.83;;;28.20;84.20;;;;;;5030272;28;20073;-66
2022/07/17 00:03:58;;;;;;;6.97;3.28;;;28.20;84.10;;;;;;5031507;28;20053;-66
2022/07/17 00:06:26;;;;;;;5.22;3.45;;;28.20;84.10;;;;;;5046565;28;20071;-69
2022/07/17 00:08:54;;;;;;;4.43;2.92;;;28.10;83.90;;;;;;5013436;28;20052;-66
2022/07/17 00:11:22;;;;;;;5.78;3.08;;;28.10;83.90;;;;;;5028030;28;20053;-66
2022/07/17 00:13:50;;;;;;;6.13;3.30;;;28.10;83.90;;;;;;5013547;28;20042;-67
2022/07/17 00:16:18;;;;;;;4.75;3.50;;;28.10;84.00;;;;;;5013592;28;20060;-68
2022/07/17 00:18:45;;;;;;;3.90;3.17;;;28.10;84.00;;;;;;5029941;28;20120;-67
2022/07/17 00:21:13;;;;;;;5.93;3.45;;;28.10;84.10;;;;;;5029876;28;20519;-66
2022/07/17 00:23:40;;;;;;;3.90;2.90;;;28.10;84.20;;;;;;5031153;28;20046;-68
2022/07/17 00:26:09;;;;;;;6.68;3.28;;;28.10;84.20;;;;;;5013348;28;20049;-66
2022/07/17 00:28:36;;;;;;;5.13;2.67;;;28.00;84.30;;;;;;5046457;28;20045;-66
2022/07/17 00:31:05;;;;;;;5.28;3.33;;;28.00;84.40;;;;;;5046025;28;20057;-66
2022/07/17 00:33:32;;;;;;;4.53;3.30;;;28.00;84.50;;;;;;5029038;28;20081;-66
2022/07/17 00:36:00;;;;;;;5.25;3.22;;;28.00;84.70;;;;;;5029054;28;20498;-66
2022/07/17 00:38:28;;;;;;;5.50;2.95;;;28.00;84.70;;;;;;5029628;28;20051;-66
2022/07/17 00:40:57;;;;;;;5.40;3.38;;;27.90;84.80;;;;;;5013105;28;20492;-66
2022/07/17 00:43:25;;;;;;;6.45;3.00;;;27.90;84.80;;;;;;5046489;28;20059;-66
2022/07/17 00:46:00;;;;;;;6.65;3.20;;;27.90;84.90;;;;;;5013172;28;20148;-66
2022/07/17 00:48:28;;;;;;;4.53;3.20;;;27.90;85.00;;;;;;5013029;28;20049;-66
2022/07/17 00:50:56;;;;;;;11.98;3.67;;;27.90;85.30;;;;;;5013665;28;20088;-67
2022/07/17 00:53:24;;;;;;;4.68;2.90;;;27.90;85.30;;;;;;5028575;28;20045;-67
2022/07/17 00:55:52;;;;;;;4.28;3.25;;;27.80;85.80;;;;;;5030544;28;20091;-68
2022/07/17 00:58:23;;;;;;;4.10;3.03;;;27.80;85.50;;;;;;5045540;28;20045;-66
2022/07/17 01:00:52;;;;;;;4.95;3.63;;;27.80;85.70;;;;;;5029887;28;20056;-67
2022/07/17 01:03:22;;;;;;;4.05;3.10;;;27.80;86.00;;;;;;5025749;28;20563;-66
2022/07/17 01:05:50;;;;;;;4.15;3.28;;;27.80;86.10;;;;;;5009673;28;20034;-67
2022/07/17 01:08:18;;;;;;;5.90;2.97;;;27.80;86.30;;;;;;5025648;28;20041;-67
2022/07/17 01:10:46;;;;;;;5.28;2.95;;;27.80;86.40;;;;;;5025830;28;20088;-67
2022/07/17 01:13:13;;;;;;;4.32;3.53;;;27.80;86.50;;;;;;5010679;28;20076;-67
2022/07/17 01:15:41;;;;;;;4.75;3.17;;;27.70;86.70;;;;;;5025877;28;20054;-69
2022/07/17 01:18:11;;;;;;;3.80;3.17;;;27.70;86.70;;;;;;5009684;28;20046;-66
2022/07/17 01:20:42;;;;;;;6.72;3.00;;;27.70;86.70;;;;;;5009618;28;20168;-66
2022/07/17 01:23:10;;;;;;;4.93;3.10;;;27.70;86.80;;;;;;5009961;28;20508;-66
2022/07/17 01:25:38;;;;;;;5.25;2.90;;;27.70;87.00;;;;;;5009800;28;20504;-66
2022/07/17 01:28:07;;;;;;;4.63;3.08;;;27.70;87.30;;;;;;5009729;28;20042;-67
2022/07/17 01:30:35;;;;;;;5.28;3.30;;;27.60;87.40;;;;;;5010003;28;20042;-67
2022/07/17 01:33:03;;;;;;;5.57;3.17;;;27.60;87.70;;;;;;5040383;28;20050;-66
2022/07/17 01:35:31;;;;;;;5.40;3.10;;;27.60;88.00;;;;;;5028874;28;20053;-68
2022/07/17 01:37:59;;;;;;;3.67;2.97;;;27.60;88.00;;;;;;5030302;28;20045;-66
2022/07/17 01:40:26;;;;;;;5.38;3.22;;;27.50;88.00;;;;;;5029854;28;20041;-66
2022/07/17 01:42:54;;;;;;;5.43;2.83;;;27.50;87.90;;;;;;5030010;28;20763;-66
2022/07/17 01:45:21;;;;;;;4.65;3.00;;;27.50;88.00;;;;;;5028439;28;20563;-67
2022/07/17 01:47:49;;;;;;;5.78;3.00;;;27.50;88.10;;;;;;5012481;28;20046;-67
2022/07/17 01:50:17;;;;;;;6.65;3.65;;;27.50;88.00;;;;;;5028031;28;20050;-65
2022/07/17 01:52:45;;;;;;;5.28;3.45;;;27.50;88.10;;;;;;5045060;28;20613;-66
2022/07/17 01:55:15;;;;;;;5.68;3.20;;;27.50;88.20;;;;;;5028752;28;20832;-66
2022/07/17 01:57:44;;;;;;;6.13;3.80;;;27.50;88.20;;;;;;5012410;28;20149;-71
2022/07/17 02:00:16;;;;;;;4.43;3.60;;;27.40;87.90;;;;;;5028396;28;20056;-68
2022/07/17 02:02:45;;;;;;;4.55;3.22;;;27.40;87.70;;;;;;5029185;28;20049;-66
2022/07/17 02:05:13;;;;;;;4.10;3.40;;;27.40;87.50;;;;;;5045762;28;20137;-68
2022/07/17 02:07:41;;;;;;;5.53;3.40;;;27.30;87.40;;;;;;5032308;28;20045;-66
2022/07/17 02:10:09;;;;;;;4.95;3.67;;;27.40;87.30;;;;;;5032706;28;20062;-67
2022/07/17 02:12:38;;;;;;;4.40;3.67;;;27.30;87.20;;;;;;5015716;28;20456;-66
2022/07/17 02:15:06;;;;;;;5.70;3.33;;;27.40;87.30;;;;;;5031982;28;20503;-67
2022/07/17 02:17:38;;;;;;;5.30;3.70;;;27.30;87.30;;;;;;5032252;28;20411;-70
2022/07/17 02:20:07;;;;;;;4.93;3.50;;;27.30;87.40;;;;;;5015523;28;20050;-67
2022/07/17 02:22:35;;;;;;;7.00;4.50;;;27.30;87.50;;;;;;5033344;28;20045;-66
2022/07/17 02:25:06;;;;;;;5.80;3.70;;;27.20;87.50;;;;;;5048849;28;20048;-67
2022/07/17 02:27:34;;;;;;;5.28;3.78;;;27.20;87.50;;;;;;5033089;28;20050;-67
2022/07/17 02:30:04;;;;;;;4.55;3.97;;;27.30;87.50;;;;;;5032268;28;20056;-65
2022/07/17 02:32:32;;;;;;;4.60;3.40;;;27.30;87.30;;;;;;5032744;28;20061;-66
2022/07/17 02:34:59;;;;;;;6.22;3.47;;;27.20;87.00;;;;;;5032943;28;20049;-66
2022/07/17 02:37:27;;;;;;;8.23;3.60;;;27.30;86.70;;;;;;4995928;28;20132;-67
2022/07/17 02:39:54;;;;;;;4.95;3.75;;;27.30;86.40;;;;;;5012040;28;20048;-66
2022/07/17 02:42:23;;;;;;;5.10;4.05;;;27.30;85.80;;;;;;5013088;28;20508;-68
2022/07/17 02:44:53;;;;;;;4.53;3.75;;;27.30;85.50;;;;;;5012043;28;20123;-66
2022/07/17 02:47:22;;;;;;;6.95;4.10;;;27.30;85.20;;;;;;5013358;28;20092;-67
2022/07/17 02:49:50;;;;;;;5.28;3.58;;;27.30;85.10;;;;;;5011934;28;20471;-66
2022/07/17 02:52:19;;;;;;;4.82;4.05;;;27.40;85.00;;;;;;5011124;28;20050;-67
2022/07/17 02:54:47;;;;;;;4.10;3.58;;;27.40;84.90;;;;;;5028566;28;20042;-66
2022/07/17 02:57:15;;;;;;;4.60;3.78;;;27.40;84.80;;;;;;5012036;28;20056;-66
2022/07/17 02:59:43;;;;;;;8.05;3.88;;;27.40;84.90;;;;;;5011681;28;20096;-66
2022/07/17 03:02:10;;;;;;;6.57;3.90;;;27.40;84.90;;;;;;5038524;28;20124;-70
2022/07/17 03:04:38;;;;;;;6.43;3.55;;;27.50;84.90;;;;;;5027810;28;20045;-67
2022/07/17 03:07:06;;;;;;;5.13;4.03;;;27.50;84.90;;;;;;5012692;28;20085;-66
2022/07/17 03:09:33;;;;;;;4.03;3.35;;;27.50;84.90;;;;;;5011297;28;20492;-67
2022/07/17 03:12:01;;;;;;;5.38;4.00;;;27.50;85.00;;;;;;5012576;28;20095;-68
2022/07/17 03:14:28;;;;;;;9.20;4.80;;;27.50;85.20;;;;;;5011240;28;20453;-68
2022/07/17 03:16:56;;;;;;;4.57;3.85;;;27.50;85.30;;;;;;5011190;28;20062;-67
2022/07/17 03:19:23;;;;;;;6.68;4.00;;;27.50;85.60;;;;;;5012283;28;20065;-72
2022/07/17 03:21:51;;;;;;;6.63;4.20;;;27.50;85.80;;;;;;5012436;28;20098;-66
2022/07/17 03:24:18;;;;;;;4.88;4.03;;;27.50;86.00;;;;;;5010676;28;20054;-66
2022/07/17 03:26:46;;;;;;;5.00;4.03;;;27.50;86.10;;;;;;5011598;28;20436;-65
2022/07/17 03:29:17;;;;;;;7.90;4.72;;;27.50;86.10;;;;;;5027451;28;20124;-68
2022/07/17 03:31:48;;;;;;;7.28;4.13;;;27.50;86.30;;;;;;5024679;28;20049;-66
2022/07/17 03:34:15;;;;;;;6.55;4.50;;;27.50;86.40;;;;;;5047101;28;20057;-67
2022/07/17 03:36:43;;;;;;;6.07;4.32;;;27.50;86.60;;;;;;5030561;28;20080;-66
2022/07/17 03:39:11;;;;;;;7.63;4.60;;;27.50;86.80;;;;;;5030765;28;20056;-66
2022/07/17 03:41:38;;;;;;;6.63;4.60;;;27.50;86.90;;;;;;5031163;28;20140;-66
2022/07/17 03:44:07;;;;;;;6.65;4.57;;;27.50;87.10;;;;;;5031760;28;20164;-66
2022/07/17 03:46:35;;;;;;;5.18;4.20;;;27.60;87.30;;;;;;5031721;28;20049;-69
2022/07/17 03:49:03;;;;;;;5.93;4.47;;;27.60;87.50;;;;;;5014181;28;20052;-66
2022/07/17 03:51:30;;;;;;;5.95;4.35;;;27.60;87.80;;;;;;5030418;28;20061;-66
2022/07/17 03:53:58;;;;;;;7.47;5.20;;;27.60;87.90;;;;;;5031675;28;20601;-66
2022/07/17 03:56:26;;;;;;;4.90;4.38;;;27.60;88.10;;;;;;5046984;28;20045;-67
2022/07/17 03:58:53;;;;;;;5.53;4.38;;;27.60;88.10;;;;;;5030381;28;20122;-66
2022/07/17 04:01:21;;;;;;;6.72;4.75;;;27.70;88.20;;;;;;5030412;28;20077;-66
2022/07/17 04:03:49;;;;;;;6.40;4.80;;;27.70;88.20;;;;;;5030350;28;20049;-70
2022/07/17 04:06:16;;;;;;;5.85;4.43;;;27.70;88.20;;;;;;5046880;28;20052;-66
2022/07/17 04:08:44;;;;;;;5.90;4.25;;;27.70;88.10;;;;;;5030297;28;20045;-66
2022/07/17 04:11:12;;;;;;;8.27;5.18;;;27.80;88.10;;;;;;5013835;28;20077;-68
2022/07/17 04:13:39;;;;;;;5.82;4.30;;;27.80;88.00;;;;;;5046583;28;20137;-66
2022/07/17 04:16:07;;;;;;;6.70;5.15;;;27.90;88.10;;;;;;5030181;28;20137;-66
2022/07/17 04:18:36;;;;;;;8.18;4.90;;;27.90;88.00;;;;;;5031205;28;20076;-67
2022/07/17 04:21:06;;;;;;;12.45;6.10;;;28.00;88.10;;;;;;5045867;28;20045;-66
2022/07/17 04:23:34;;;;;;;7.43;4.72;;;28.10;88.10;;;;;;5043998;28;20553;-67
2022/07/17 04:26:03;;;;;;;8.02;5.55;;;28.20;88.10;;;;;;5029994;28;20466;-68
2022/07/17 04:28:36;;;;;;;5.80;4.55;;;28.20;88.10;;;;;;5013862;28;20184;-66
2022/07/17 04:31:03;;;;;;;7.25;5.00;;;28.30;88.20;;;;;;5029756;28;20077;-66
2022/07/17 04:33:31;;;;;;;8.63;5.35;;;28.40;88.40;;;;;;5013567;28;20053;-67
2022/07/17 04:35:58;;;;;;;6.38;5.07;;;28.50;88.50;;;;;;5031093;28;20076;-66
2022/07/17 04:38:26;;;;;;;8.02;5.68;;;28.60;88.70;;;;;;5029360;28;20050;-68
2022/07/17 04:40:54;;;;;;;8.95;5.93;;;28.70;89.40;;;;;;5029554;28;20514;-67
2022/07/17 04:43:21;;;;;;;6.82;5.57;;;28.80;89.00;;;;;;5045958;28;20569;-67
2022/07/17 04:45:49;;;;;;;11.38;6.75;;;28.90;89.20;;;;;;5029726;28;20061;-65
2022/07/17 04:48:16;;;;;;;8.18;5.35;;;29.00;89.30;;;;;;5029792;28;20092;-70
2022/07/17 04:50:44;;;;;;;10.95;6.53;;;29.10;89.40;;;;;;5013174;28;20057;-67
2022/07/17 04:53:12;;;;;;;12.05;7.13;;;29.20;89.60;;;;;;5045971;28;20049;-66
2022/07/17 04:55:40;;;;;;;7.43;6.38;;;29.30;89.90;;;;;;5013283;28;20545;-67
2022/07/17 04:58:07;;;;;;;8.50;5.90;;;29.30;90.10;;;;;;5013578;28;20426;-66
2022/07/17 05:00:35;;;;;;;6.63;5.50;;;29.40;90.30;;;;;;5029100;28;20054;-69
2022/07/17 05:03:03;;;;;;;7.75;5.65;;;29.50;90.40;;;;;;5029468;28;20075;-66
2022/07/17 05:05:30;;;;;;;9.80;5.57;;;29.60;90.50;;;;;;5030466;28;20049;-67
2022/07/17 05:07:58;;;;;;;5.80;4.68;;;29.70;90.70;;;;;;5029609;28;20049;-66
2022/07/17 05:10:25;;;;;;;7.82;5.32;;;29.80;90.80;;;;;;5045467;28;20487;-66
2022/07/17 05:12:54;;;;;;;6.85;5.55;;;29.90;91.00;;;;;;5028986;28;20045;-66
2022/07/17 05:15:21;;;;;;;7.65;4.53;;;29.90;91.20;;;;;;5027725;28;20049;-66
2022/07/17 05:17:49;;;;;;;6.65;4.85;;;30.00;91.50;;;;;;5013238;28;20524;-67
2022/07/17 05:20:17;;;;;;;5.43;4.53;;;30.10;91.60;;;;;;5030108;28;20049;-67
2022/07/17 05:22:44;;;;;;;6.95;4.22;;;30.20;91.70;;;;;;5029342;28;20391;-66
2022/07/17 05:25:12;;;;;;;7.68;4.90;;;30.30;91.80;;;;;;5012708;28;20503;-66
2022/07/17 05:27:40;;;;;;;7.63;4.20;;;30.40;91.80;;;;;;5028827;28;20050;-67
2022/07/17 05:30:08;;;;;;;5.13;3.42;;;30.50;91.70;;;;;;5012959;28;20056;-66
2022/07/17 05:32:36;;;;;;;5.10;3.72;;;30.60;91.60;;;;;;5028885;28;20061;-66
2022/07/17 05:35:04;;;;;;;6.63;4.43;;;30.70;91.40;;;;;;4996437;28;20041;-66
2022/07/17 05:37:31;;;;;;;6.22;4.45;;;30.90;91.10;;;;;;5030144;28;20068;-67
2022/07/17 05:39:59;;;;;;;7.28;4.40;;;30.90;90.90;;;;;;5012979;28;20184;-66
2022/07/17 05:42:27;;;;;;;5.82;4.05;;;31.00;90.50;;;;;;5016016;28;20045;-67
2022/07/17 05:44:58;;;;;;;4.57;3.70;;;31.00;90.30;;;;;;5034151;28;20043;-66
2022/07/17 05:47:26;;;;;;;6.00;3.58;;;31.10;89.90;;;;;;5034103;28;20053;-66
2022/07/17 05:49:54;;;;;;;6.63;3.80;;;31.20;89.70;;;;;;5032945;28;20050;-66
2022/07/17 05:52:21;;;;;;;4.53;3.35;;;31.30;88.80;;;;;;5015489;28;20521;-66
2022/07/17 05:54:49;;;;;;;4.13;2.70;;;31.40;87.00;;;;;;5033841;28;20052;-65
2022/07/17 05:57:16;;;;;;;3.88;2.83;;;31.50;84.60;;;;;;5015977;28;20176;-66
2022/07/17 05:59:44;;;;;;;3.53;3.00;;;31.60;83.90;;;;;;5032678;28;20060;-67
2022/07/17 06:02:12;;;;;;;5.70;3.03;;;31.60;84.20;;;;;;5015978;28;20574;-66
2022/07/17 06:04:39;;;;;;;5.68;3.17;;;31.70;83.50;;;;;;5032239;28;20144;-68
2022/07/17 06:07:07;;;;;;;4.45;3.13;;;31.80;83.50;;;;;;5032596;28;20059;-66
2022/07/17 06:09:34;;;;;;;5.40;3.70;;;31.80;83.90;;;;;;5033574;28;20539;-66
2022/07/17 06:12:02;;;;;;;5.35;3.30;;;31.80;84.00;;;;;;5032435;28;20103;-66
2022/07/17 06:14:30;;;;;;;3.95;3.20;;;31.90;84.00;;;;;;5031385;28;20116;-66
2022/07/17 06:16:57;;;;;;;4.53;3.10;;;32.00;84.00;;;;;;5032487;28;20046;-66
2022/07/17 06:19:25;;;;;;;5.47;3.28;;;32.00;83.20;;;;;;5033203;28;20399;-66
2022/07/17 06:21:52;;;;;;;4.10;3.50;;;32.20;82.90;;;;;;5048298;28;20112;-67
2022/07/17 06:24:20;;;;;;;7.45;3.58;;;32.20;82.90;;;;;;5014921;28;20538;-70
2022/07/17 06:26:48;;;;;;;7.13;3.40;;;32.40;83.00;;;;;;5015870;28;20132;-66
2022/07/17 06:29:17;;;;;;;6.65;2.90;;;32.60;82.90;;;;;;5015631;28;20411;-69
2022/07/17 06:31:45;;;;;;;4.80;3.00;;;32.80;82.10;;;;;;5031307;28;20053;-67
2022/07/17 06:34:12;;;;;;;4.93;2.95;;;32.90;80.70;;;;;;5033167;28;20045;-67
2022/07/17 06:36:39;;;;;;;3.10;2.28;;;33.00;79.70;;;;;;5031814;28;20073;-67
2022/07/17 06:39:07;;;;;;;3.65;2.75;;;33.00;79.90;;;;;;5031996;28;20408;-68
2022/07/17 06:41:35;;;;;;;5.32;2.67;;;33.10;79.50;;;;;;5032938;28;20150;-66
2022/07/17 06:44:04;;;;;;;5.03;2.63;;;33.20;78.60;;;;;;5031493;28;20500;-66
2022/07/17 06:46:31;;;;;;;4.80;2.60;;;33.20;78.50;;;;;;5030978;28;20057;-66
2022/07/17 06:48:59;;;;;;;6.40;2.00;;;33.40;76.80;;;;;;5032045;28;20045;-68
2022/07/17 06:51:26;;;;;;;2.95;2.00;;;33.50;76.50;;;;;;5030332;28;20057;-67
2022/07/17 06:53:54;;;;;;;2.13;1.50;;;33.60;75.70;;;;;;5048066;28;20455;-73
2022/07/17 06:56:22;;;;;;;3.17;1.85;;;33.60;74.70;;;;;;5030734;28;20045;-66
2022/07/17 06:58:49;;;;;;;4.22;1.75;;;33.60;74.20;;;;;;5030193;28;20144;-70
2022/07/17 07:01:17;;;;;;;3.40;1.80;;;33.60;73.90;;;;;;5031931;28;20073;-67
2022/07/17 07:03:44;;;;;;;3.25;1.63;;;33.50;74.00;;;;;;5028688;28;20060;-67
2022/07/17 07:06:12;;;;;;;3.70;2.03;;;33.50;73.70;;;;;;5010610;28;20041;-66
2022/07/17 07:08:40;;;;;;;2.10;1.40;;;33.50;73.70;;;;;;5012055;28;20069;-65
2022/07/17 07:11:08;;;;;;;1.92;1.35;;;33.50;73.50;;;;;;5027458;28;20073;-67
2022/07/17 07:13:35;;;;;;;4.82;1.67;;;33.50;73.60;;;;;;5012422;28;20080;-66
2022/07/17 07:16:03;;;;;;;4.93;1.88;;;33.50;73.30;;;;;;5011370;28;20042;-66
2022/07/17 07:18:31;;;;;;;2.97;1.50;;;33.50;73.30;;;;;;5027520;28;20049;-66
2022/07/17 07:20:58;;;;;;;2.50;1.50;;;33.70;73.30;;;;;;5012248;28;20050;-67
2022/07/17 07:23:26;;;;;;;2.75;1.38;;;33.80;73.30;;;;;;5011586;28;20042;-66
2022/07/17 07:25:53;;;;;;;3.70;1.50;;;33.90;72.70;;;;;;5011425;28;20060;-67
2022/07/17 07:28:21;;;;;;;3.38;1.35;;;34.00;72.70;;;;;;5011299;28;20129;-66
2022/07/17 07:30:49;;;;;;;2.92;1.45;;;34.00;73.00;;;;;;5028430;28;20046;-66
2022/07/17 07:33:16;;;;;;;1.92;1.30;;;34.00;73.00;;;;;;5011984;28;20065;-66
2022/07/17 07:35:44;;;;;;;1.90;1.30;;;33.90;73.20;;;;;;5011364;28;20104;-66
2022/07/17 07:38:11;;;;;;;2.47;1.48;;;33.80;72.90;;;;;;5011191;28;20124;-65
2022/07/17 07:40:39;;;;;;;1.77;1.20;;;33.80;73.10;;;;;;5012117;28;20054;-67
2022/07/17 07:43:07;;;;;;;3.15;1.95;;;33.80;73.60;;;;;;5012279;28;20041;-67
2022/07/17 07:45:34;;;;;;;2.00;1.40;;;34.00;74.20;;;;;;5011107;28;20054;-66
2022/07/17 07:48:02;;;;;;;2.72;1.58;;;33.90;73.40;;;;;;4994233;28;20049;-66
2022/07/17 07:50:30;;;;;;;2.65;1.40;;;34.10;73.00;;;;;;5010531;28;20500;-68
2022/07/17 07:52:57;;;;;;;3.35;1.95;;;34.30;72.00;;;;;;5010950;28;20416;-66
2022/07/17 07:55:26;;;;;;;3.58;1.98;;;34.10;70.50;;;;;;5026768;28;20092;-67
2022/07/17 07:58:11;;;;;;;3.53;2.10;;;34.30;70.90;;;;;;5026346;28;20134;-67
2022/07/17 08:00:42;;;;;;;2.33;1.65;;;34.10;71.50;;;;;;5035772;28;20398;-66
2022/07/17 08:03:10;;;;;;;2.58;1.80;;;34.10;72.00;;;;;;5027882;28;20037;-69
2022/07/17 08:05:38;;;;;;;3.55;1.92;;;34.10;71.80;;;;;;5027915;28;20041;-67
2022/07/17 08:08:06;;;;;;;2.63;1.95;;;34.10;72.20;;;;;;5011283;28;20053;-67
2022/07/17 08:10:34;;;;;;;2.90;2.10;;;34.10;71.90;;;;;;4999168;28;20054;-67
2022/07/17 08:13:02;;;;;;;3.78;1.73;;;34.10;71.80;;;;;;5023004;28;20502;-67
2022/07/17 08:15:31;;;;;;;4.47;2.30;;;34.20;71.80;;;;;;5027772;28;20049;-67
2022/07/17 08:17:59;;;;;;;4.90;2.17;;;34.30;71.20;;;;;;5026921;28;20458;-69
2022/07/17 08:20:27;;;;;;;3.15;1.70;;;34.30;71.00;;;;;;5026116;28;20059;-67
2022/07/17 08:22:55;;;;;;;3.60;1.80;;;34.30;71.20;;;;;;5027107;28;20045;-71
2022/07/17 08:25:32;;;;;;;2.08;1.70;;;34.20;71.60;;;;;;5029312;28;20147;-69
2022/07/17 08:28:00;;;;;;;2.35;1.60;;;34.40;71.40;;;;;;5029854;28;20132;-66
2022/07/17 08:30:28;;;;;;;2.53;1.60;;;34.60;70.70;;;;;;5030109;28;20037;-66
2022/07/17 08:32:55;;;;;;;3.63;1.60;;;34.70;70.70;;;;;;5029319;28;20038;-66
2022/07/17 08:35:23;;;;;;;3.78;1.77;;;34.90;70.70;;;;;;5029883;28;20136;-68
2022/07/17 08:37:52;;;;;;;4.20;1.88;;;35.00;69.90;;;;;;5046341;28;20038;-66
2022/07/17 08:40:20;;;;;;;2.13;1.38;;;35.10;70.00;;;;;;5030272;28;20053;-68
2022/07/17 08:42:49;;;;;;;4.13;1.80;;;35.10;70.20;;;;;;5029635;28;20048;-67
2022/07/17 08:45:17;;;;;;;4.38;1.98;;;34.90;70.00;;;;;;5045892;28;20070;-67
2022/07/17 08:47:45;;;;;;;2.97;2.03;;;35.00;70.20;;;;;;5013257;28;20065;-66
2022/07/17 08:50:13;;;;;;;4.18;1.90;;;35.00;69.50;;;;;;5028395;28;20045;-66
2022/07/17 08:52:42;;;;;;;4.05;1.70;;;35.20;69.70;;;;;;5029138;28;20080;-67
2022/07/17 08:55:13;;;;;;;4.15;1.83;;;35.20;69.80;;;;;;5012695;28;20140;-67
2022/07/17 08:57:43;;;;;;;2.65;1.73;;;35.20;69.50;;;;;;5029543;28;20507;-68
2022/07/17 09:00:15;;;;;;;3.10;1.67;;;35.20;69.90;;;;;;5045822;28;20103;-67
2022/07/17 09:03:06;;;;;;;3.40;2.00;;;35.20;68.60;;;;;;5030467;28;20041;-67
2022/07/17 09:05:36;;;;;;;4.22;2.28;;;35.40;67.50;;;;;;5030924;28;20049;-66
2022/07/17 09:08:08;;;;;;;2.75;1.83;;;35.50;69.10;;;;;;5045938;28;20092;-66
2022/07/17 09:10:40;;;;;;;3.33;2.22;;;35.40;67.80;;;;;;5028706;28;20053;-67
2022/07/17 09:13:26;;;;;;;2.55;1.77;;;35.40;67.90;;;;;;5028434;28;20045;-67
2022/07/17 09:15:57;;;;;;;3.33;1.83;;;35.50;68.10;;;;;;5028047;28;20156;-67
2022/07/17 09:18:25;;;;;;;2.90;2.10;;;35.30;67.80;;;;;;5012986;28;20068;-66
2022/07/17 09:20:56;;;;;;;3.08;1.55;;;35.40;68.00;;;;;;5030467;28;20056;-68
2022/07/17 09:23:26;;;;;;;3.63;1.85;;;35.50;67.70;;;;;;5045465;28;20135;-66
2022/07/17 09:25:56;;;;;;;3.10;2.10;;;35.50;67.30;;;;;;5029079;28;20065;-66
2022/07/17 09:28:24;;;;;;;4.68;2.15;;;35.50;67.60;;;;;;5028781;28;20058;-68
2022/07/17 09:30:54;;;;;;;3.58;1.80;;;35.60;68.30;;;;;;5028972;28;20476;-67
2022/07/17 09:33:26;;;;;;;2.50;1.92;;;35.50;68.40;;;;;;5030378;28;20479;-66
2022/07/17 09:36:06;;;;;;;2.90;1.63;;;35.50;67.40;;;;;;5045807;28;20052;-66
2022/07/17 09:38:37;;;;;;;4.15;2.03;;;35.40;68.10;;;;;;5029128;28;20057;-68
2022/07/17 09:41:14;;;;;;;3.78;1.73;;;35.40;67.60;;;;;;5028939;28;20116;-66
2022/07/17 09:43:52;;;;;;;4.03;2.40;;;35.50;68.00;;;;;;5045976;28;20104;-67
2022/07/17 09:46:28;;;;;;;3.22;1.50;;;35.40;68.50;;;;;;5029971;28;20034;-68
2022/07/17 09:49:09;;;;;;;4.28;2.05;;;35.40;68.80;;;;;;5027642;28;20041;-66
2022/07/17 09:51:39;;;;;;;6.13;1.90;;;35.50;68.70;;;;;;5028796;28;20111;-66
2022/07/17 09:54:10;;;;;;;3.13;2.20;;;35.30;68.80;;;;;;5012941;28;20041;-67
2022/07/17 09:56:39;;;;;;;4.63;2.00;;;35.40;68.50;;;;;;5030116;28;20767;-67
2022/07/17 09:59:12;;;;;;;3.15;1.60;;;35.50;68.00;;;;;;5045244;28;20049;-69
2022/07/17 10:01:42;;;;;;;3.30;1.50;;;35.60;67.60;;;;;;5028535;28;20045;-68
2022/07/17 10:04:11;;;;;;;3.25;1.77;;;35.50;67.40;;;;;;5029575;28;20080;-77
2022/07/17 10:06:39;;;;;;;1.83;1.50;;;35.60;67.00;;;;;;5045383;28;20045;-66
2022/07/17 10:09:07;;;;;;;2.60;1.85;;;35.70;67.30;;;;;;5027972;28;20136;-66
2022/07/17 10:11:38;;;;;;;3.58;1.80;;;35.70;67.40;;;;;;5028446;28;20041;-67
2022/07/17 10:14:12;;;;;;;3.47;1.83;;;35.50;66.20;;;;;;5028853;28;20072;-66
2022/07/17 10:16:40;;;;;;;4.47;1.55;;;35.50;66.20;;;;;;5045019;28;20049;-65
2022/07/17 10:19:19;;;;;;;3.05;1.85;;;35.50;65.20;;;;;;5028703;28;20046;-68
2022/07/17 10:22:05;;;;;;;4.38;2.00;;;35.60;66.40;;;;;;5012441;28;20045;-67
2022/07/17 10:24:44;;;;;;;2.53;2.10;;;35.60;66.50;;;;;;5028859;28;20128;-66
2022/07/17 10:27:32;;;;;;;4.70;2.20;;;35.70;66.20;;;;;;5047366;28;20045;-69
2022/07/17 10:30:05;;;;;;;3.72;2.22;;;35.60;65.70;;;;;;5031897;28;20515;-66
2022/07/17 10:32:33;;;;;;;3.72;2.38;;;35.50;65.20;;;;;;5033137;28;20490;-67
2022/07/17 10:35:05;;;;;;;3.38;1.95;;;35.50;64.60;;;;;;5031585;28;20061;-67
2022/07/17 10:37:35;;;;;;;3.05;1.67;;;35.60;64.50;;;;;;5032724;28;20100;-67
2022/07/17 10:40:18;;;;;;;3.40;1.90;;;35.60;65.00;;;;;;5015324;28;20060;-66
2022/07/17 10:42:45;;;;;;;2.78;1.75;;;35.70;64.70;;;;;;5029857;28;20048;-66
2022/07/17 10:45:18;;;;;;;3.55;1.98;;;35.70;64.50;;;;;;5032814;28;20076;-66
2022/07/17 10:47:52;;;;;;;2.60;1.75;;;35.80;65.40;;;;;;5031928;28;20079;-66
2022/07/17 10:50:29;;;;;;;3.08;2.10;;;35.70;63.90;;;;;;5031702;28;20526;-67
2022/07/17 10:53:02;;;;;;;4.07;1.80;;;35.70;63.40;;;;;;5032647;28;20128;-67
2022/07/17 10:55:31;;;;;;;3.25;1.90;;;35.60;64.10;;;;;;5031567;28;20041;-66
2022/07/17 10:57:58;;;;;;;2.65;1.70;;;35.60;63.90;;;;;;5015196;28;20060;-66
2022/07/17 11:00:26;;;;;;;2.83;2.00;;;35.70;63.40;;;;;;5030640;28;20053;-67
2022/07/17 11:02:54;;;;;;;2.88;2.22;;;35.70;63.80;;;;;;5015180;28;20056;-66
2022/07/17 11:05:22;;;;;;;2.40;1.80;;;35.80;64.40;;;;;;4998835;28;20050;-66
2022/07/17 11:07:59;;;;;;;2.88;2.13;;;35.90;62.80;;;;;;5032572;28;20589;-69
2022/07/17 11:10:28;;;;;;;4.30;1.95;;;35.90;62.40;;;;;;5031086;28;20073;-70
2022/07/17 11:13:08;;;;;;;3.08;2.13;;;35.90;63.00;;;;;;5032497;28;20049;-66
2022/07/17 11:15:44;;;;;;;2.90;1.83;;;35.90;61.90;;;;;;5015368;28;20049;-67
2022/07/17 11:18:17;;;;;;;1.92;1.58;;;35.80;62.10;;;;;;5031249;28;20488;-67
2022/07/17 11:20:52;;;;;;;4.47;2.47;;;35.90;61.80;;;;;;5032256;28;20053;-70
2022/07/17 11:23:20;;;;;;;;;;;35.80;61.60;;;;;;5014969;28;20053;-67
2022/07/17 11:26:04;;;;;;;3.00;1.98;;;35.90;61.60;;;;;;5030207;28;20306;-67
2022/07/17 11:28:38;;;;;;;2.35;1.70;;;35.90;61.80;;;;;;5031048;28;20053;-69
2022/07/17 11:31:27;;;;;;;2.72;1.80;;;35.90;61.20;;;;;;5031262;28;20875;-67
2022/07/17 11:34:01;;;;;;;3.30;1.90;;;35.90;60.50;;;;;;4998316;28;20641;-69
2022/07/17 11:36:33;;;;;;;3.55;2.42;;;35.90;60.80;;;;;;5030885;28;20128;-67
2022/07/17 11:39:05;;;;;;;3.28;2.13;;;36.00;60.00;;;;;;5014034;28;20049;-66
2022/07/17 11:41:35;;;;;;;3.20;1.88;;;35.90;60.10;;;;;;5014230;28;20049;-67
2022/07/17 11:44:06;;;;;;;4.78;2.30;;;35.90;60.70;;;;;;5030683;28;20037;-67
2022/07/17 11:46:34;;;;;;;2.88;1.90;;;35.90;60.70;;;;;;5031678;28;20068;-67
2022/07/17 11:49:03;;;;;;;2.28;1.70;;;35.90;60.20;;;;;;5047278;28;20042;-66
2022/07/17 11:51:39;;;;;;;4.05;1.98;;;35.90;61.00;;;;;;5031742;28;20156;-68
2022/07/17 11:54:12;;;;;;;3.15;2.05;;;35.80;60.10;;;;;;4997918;28;20049;-66
2022/07/17 11:56:41;;;;;;;4.55;2.90;;;35.70;60.10;;;;;;5029937;28;20050;-71
2022/07/17 11:59:10;;;;;;;3.80;3.10;;;35.60;60.80;;;;;;5046490;28;20077;-67
2022/07/17 12:01:47;;;;;;;5.93;3.38;;;35.60;60.70;;;;;;5030655;28;20045;-67
2022/07/17 12:04:16;;;;;;;3.53;3.00;;;35.70;60.50;;;;;;5030143;28;20610;-68
2022/07/17 12:06:45;;;;;;;3.42;2.45;;;35.60;60.90;;;;;;5030446;28;20041;-67
2022/07/17 12:09:13;;;;;;;2.95;2.20;;;35.70;61.00;;;;;;5031442;28;20047;-69
2022/07/17 12:11:49;;;;;;;2.80;1.90;;;35.50;60.50;;;;;;5030129;28;20053;-69
2022/07/17 12:14:17;;;;;;;4.05;2.03;;;35.40;60.60;;;;;;5022061;28;20053;-66
2022/07/17 12:16:45;;;;;;;3.15;2.38;;;35.40;61.40;;;;;;5013902;28;20069;-67
2022/07/17 12:19:18;;;;;;;4.82;2.15;;;35.40;62.20;;;;;;5012860;28;20095;-68
2022/07/17 12:21:48;;;;;;;2.53;1.77;;;35.30;61.90;;;;;;5029170;28;20068;-69
2022/07/17 12:24:38;;;;;;;4.20;2.03;;;35.20;61.80;;;;;;5029052;28;20056;-69
2022/07/17 12:27:10;;;;;;;3.10;1.80;;;35.40;62.40;;;;;;5031073;28;20049;-65
2022/07/17 12:29:38;;;;;;;4.68;2.00;;;35.20;62.40;;;;;;5028903;28;20069;-68
2022/07/17 12:32:11;;;;;;;2.47;1.88;;;35.10;61.80;;;;;;5009389;28;20157;-70
2022/07/17 12:34:50;;;;;;;2.78;1.88;;;35.10;62.50;;;;;;5024432;28;20067;-66
2022/07/17 12:37:20;;;;;;;2.30;1.70;;;35.10;62.10;;;;;;5031625;28;20048;-68
2022/07/17 12:39:49;;;;;;;3.63;1.95;;;35.00;62.20;;;;;;5019727;28;20048;-66
2022/07/17 12:42:17;;;;;;;3.28;1.60;;;35.00;62.60;;;;;;4993423;28;20053;-67
2022/07/17 12:44:45;;;;;;;2.88;1.92;;;35.00;63.20;;;;;;5006443;28;20219;-66
2022/07/17 12:47:13;;;;;;;4.70;2.55;;;35.00;64.20;;;;;;5025346;28;20065;-65
2022/07/17 12:49:42;;;;;;;2.63;1.67;;;35.10;64.10;;;;;;5010146;28;20500;-65
2022/07/17 12:52:09;;;;;;;4.30;2.40;;;35.00;63.80;;;;;;5025556;28;20151;-66
2022/07/17 12:54:37;;;;;;;2.22;1.70;;;35.10;63.90;;;;;;5022847;28;20037;-67
2022/07/17 12:57:05;;;;;;;9.23;1.75;;;35.10;63.70;;;;;;4992213;28;20049;-66
2022/07/17 12:59:34;;;;;;;2.72;1.70;;;35.10;63.50;;;;;;5009002;28;20782;-68